Ursa Minor — ICGH — position and weather

sailwx.info

Track history (hours):
 
Tides and Currents Weather Stations Pressure Air Temp Water Temp Dewpoint Dewpoint Depression Visibility Wind Speed Wind Dir Waves Ship Positions

Ursa Minor

Last reported at 2015-Sep-03 12:33 UTC. Time now 2015-Sep-03 21:29 UTC.
Position N 37°51' E 016°01'.

Length 205 m; draft 8 m.

Type: Ship. MMSI: 247082300.

Date/timePositionNaut miles runAvg speedWind from/ knotsBaromVisibWave heightAir tempDewpointWater temp
2015-Sep-03 12:33N 37°51' E 016°01'1211.0
2015-Sep-03 11:30N 37°53' E 015°46'1010.8
2015-Sep-03 10:33N 37°60' E 015°37'1111.2
2015-Sep-03 09:33N 38°11' E 015°35'9 9.1
2015-Sep-03 08:33N 38°19' E 015°40'1211.9
2015-Sep-03 07:33N 38°29' E 015°32'1211.7
2015-Sep-03 06:32N 38°40' E 015°25'10511.7
2015-Sep-02 21:33N 40°11' E 014°18'1212.0
2015-Sep-02 20:33N 40°22' E 014°11'1111.3
2015-Sep-02 19:33N 40°30' E 014°01'1211.9
2015-Sep-02 18:33N 40°38' E 013°49'1211.8
2015-Sep-02 17:33N 40°45' E 013°37'24911.3
2015-Sep-01 19:33N 43°44' E 009°43'1111.2
2015-Sep-01 18:33N 43°52' E 009°32'1211.2
2015-Sep-01 17:29N 44°01' E 009°20'2211.2
2015-Sep-01 15:33N 44°17' E 008°60'9 9.4
2015-Sep-01 14:33N 44°24' E 008°52'0 0.2
2015-Sep-01 13:33N 44°24' E 008°52'0 0.0
2015-Sep-01 12:33N 44°24' E 008°52'0 0.0
2015-Sep-01 11:33N 44°24' E 008°52'0 0.0
2015-Sep-01 10:33N 44°24' E 008°52'0 0.0
2015-Sep-01 09:33N 44°24' E 008°52'0 0.0
2015-Sep-01 08:33N 44°24' E 008°52'0 0.0
2015-Sep-01 07:33N 44°24' E 008°52'0 0.0
2015-Sep-01 06:33N 44°24' E 008°52'0 0.0
2015-Sep-01 05:33N 44°24' E 008°52'0 0.2
2015-Sep-01 04:33N 44°24' E 008°52'7 6.6
2015-Sep-01 03:33N 44°20' E 008°59'10 9.6
2015-Sep-01 02:33N 44°12' E 009°08'10 9.9
2015-Sep-01 01:33N 44°05' E 009°17'10 9.8
2015-Sep-01 00:33N 43°57' E 009°23'10 9.7
2015-Aug-31 23:33N 43°48' E 009°29'9 9.5
2015-Aug-31 22:33N 43°43' E 009°40'10 9.9
2015-Aug-31 21:33N 43°37' E 009°52'10 9.5
2015-Aug-31 20:33N 43°30' E 010°00'9 8.7
2015-Aug-31 19:33N 43°23' E 010°06'10 9.4
2015-Aug-31 18:29N 43°14' E 010°13'9 9.8
2015-Aug-31 17:33N 43°06' E 010°20'1010.0
2015-Aug-31 16:33N 42°57' E 010°26'7 0.4
2015-Aug-30 22:23N 42°54' E 010°35'4 0.2
2015-Aug-30 00:31N 42°51' E 010°37'1511.0
2015-Aug-29 23:11N 42°38' E 010°46'711.5
2015-Aug-29 22:34N 42°32' E 010°51'5611.0
2015-Aug-29 17:26N 41°54' E 011°48'2210.8
2015-Aug-29 15:26N 41°39' E 012°09'1210.6
2015-Aug-29 14:19N 41°32' E 012°22'810.7
2015-Aug-29 13:33N 41°27' E 012°30'1110.7
2015-Aug-29 12:33N 41°20' E 012°41'1110.8
2015-Aug-29 11:34N 41°13' E 012°52'1111.0
2015-Aug-29 10:34N 41°06' E 013°03'1110.9
2015-Aug-29 09:34N 40°59' E 013°15'1111.0
2015-Aug-29 08:34N 40°52' E 013°26'1110.8
2015-Aug-29 07:33N 40°45' E 013°37'1110.8
2015-Aug-29 06:33N 40°38' E 013°48'1110.6
2015-Aug-29 05:33N 40°31' E 013°58'1110.5
2015-Aug-29 04:33N 40°24' E 014°08'1110.6
2015-Aug-29 03:33N 40°15' E 014°15'1110.9
2015-Aug-29 02:33N 40°05' E 014°22'1110.9
2015-Aug-29 01:33N 39°55' E 014°28'1110.8
2015-Aug-29 00:30N 39°46' E 014°36'7810.7
2015-Aug-28 17:12N 38°38' E 015°26'810.9
2015-Aug-28 16:30N 38°32' E 015°31'1010.8
2015-Aug-28 15:33N 38°23' E 015°38'9 9.2
2015-Aug-28 14:33N 38°14' E 015°37'1211.8
2015-Aug-28 13:33N 38°02' E 015°35'1111.1
2015-Aug-28 12:33N 37°54' E 015°44'1311.5
2015-Aug-28 11:27N 37°52' E 015°60'  
2015-Aug-25 12:15N 37°50' E 015°49'810.8
2015-Aug-25 11:30N 37°50' E 015°39'1010.8
2015-Aug-25 10:33N 37°60' E 015°35'1211.7
2015-Aug-25 09:33N 38°11' E 015°36'9 8.8
2015-Aug-25 08:33N 38°20' E 015°39'1212.0
2015-Aug-25 07:33N 38°30' E 015°31'1212.2
2015-Aug-25 06:32N 38°41' E 015°23'1212.2
2015-Aug-25 05:33N 38°51' E 015°16'1412.3
2015-Aug-25 04:27N 39°03' E 015°07'5912.0
2015-Aug-24 23:30N 39°56' E 014°32'1111.8
2015-Aug-24 22:33N 40°07' E 014°31'2311.6
2015-Aug-24 20:33N 40°24' E 014°10'1212.2
2015-Aug-24 19:33N 40°32' E 013°58'1212.1
2015-Aug-24 18:33N 40°40' E 013°46'1211.9
2015-Aug-24 17:33N 40°47' E 013°34'1311.8
2015-Aug-24 16:25N 40°56' E 013°20'  
Track history (hours):
 
Tides and Currents Weather Stations Pressure Air Temp Water Temp Dewpoint Dewpoint Depression Visibility Wind Speed Wind Dir Waves Ship Positions

Ursa Minor

Last reported at 2015-Sep-03 12:33 UTC. Time now 2015-Sep-03 21:29 UTC.
Position N 37°51' E 016°01'.

Length 205 m; draft 8 m.

Type: Ship. MMSI: 247082300.

Date/timePositionNaut miles runAvg speedWind from/ knotsBaromVisibWave heightAir tempDewpointWater temp
2015-Sep-03 12:33N 37°51' E 016°01'1211.0
2015-Sep-03 11:30N 37°53' E 015°46'1010.8
2015-Sep-03 10:33N 37°60' E 015°37'1111.2
2015-Sep-03 09:33N 38°11' E 015°35'9 9.1
2015-Sep-03 08:33N 38°19' E 015°40'1211.9
2015-Sep-03 07:33N 38°29' E 015°32'1211.7
2015-Sep-03 06:32N 38°40' E 015°25'10511.7
2015-Sep-02 21:33N 40°11' E 014°18'1212.0
2015-Sep-02 20:33N 40°22' E 014°11'1111.3
2015-Sep-02 19:33N 40°30' E 014°01'1211.9
2015-Sep-02 18:33N 40°38' E 013°49'1211.8
2015-Sep-02 17:33N 40°45' E 013°37'24911.3
2015-Sep-01 19:33N 43°44' E 009°43'1111.2
2015-Sep-01 18:33N 43°52' E 009°32'1211.2
2015-Sep-01 17:29N 44°01' E 009°20'2211.2
2015-Sep-01 15:33N 44°17' E 008°60'9 9.4
2015-Sep-01 14:33N 44°24' E 008°52'0 0.2
2015-Sep-01 13:33N 44°24' E 008°52'0 0.0
2015-Sep-01 12:33N 44°24' E 008°52'0 0.0
2015-Sep-01 11:33N 44°24' E 008°52'0 0.0
2015-Sep-01 10:33N 44°24' E 008°52'0 0.0
2015-Sep-01 09:33N 44°24' E 008°52'0 0.0
2015-Sep-01 08:33N 44°24' E 008°52'0 0.0
2015-Sep-01 07:33N 44°24' E 008°52'0 0.0
2015-Sep-01 06:33N 44°24' E 008°52'0 0.0
2015-Sep-01 05:33N 44°24' E 008°52'0 0.2
2015-Sep-01 04:33N 44°24' E 008°52'7 6.6
2015-Sep-01 03:33N 44°20' E 008°59'10 9.6
2015-Sep-01 02:33N 44°12' E 009°08'10 9.9
2015-Sep-01 01:33N 44°05' E 009°17'10 9.8
2015-Sep-01 00:33N 43°57' E 009°23'10 9.7
2015-Aug-31 23:33N 43°48' E 009°29'9 9.5
2015-Aug-31 22:33N 43°43' E 009°40'10 9.9
2015-Aug-31 21:33N 43°37' E 009°52'10 9.5
2015-Aug-31 20:33N 43°30' E 010°00'9 8.7
2015-Aug-31 19:33N 43°23' E 010°06'10 9.4
2015-Aug-31 18:29N 43°14' E 010°13'9 9.8
2015-Aug-31 17:33N 43°06' E 010°20'1010.0
2015-Aug-31 16:33N 42°57' E 010°26'7 0.4
2015-Aug-30 22:23N 42°54' E 010°35'4 0.2
2015-Aug-30 00:31N 42°51' E 010°37'1511.0
2015-Aug-29 23:11N 42°38' E 010°46'711.5
2015-Aug-29 22:34N 42°32' E 010°51'5611.0
2015-Aug-29 17:26N 41°54' E 011°48'2210.8
2015-Aug-29 15:26N 41°39' E 012°09'1210.6
2015-Aug-29 14:19N 41°32' E 012°22'810.7
2015-Aug-29 13:33N 41°27' E 012°30'1110.7
2015-Aug-29 12:33N 41°20' E 012°41'1110.8
2015-Aug-29 11:34N 41°13' E 012°52'1111.0
2015-Aug-29 10:34N 41°06' E 013°03'1110.9
2015-Aug-29 09:34N 40°59' E 013°15'1111.0
2015-Aug-29 08:34N 40°52' E 013°26'1110.8
2015-Aug-29 07:33N 40°45' E 013°37'1110.8
2015-Aug-29 06:33N 40°38' E 013°48'1110.6
2015-Aug-29 05:33N 40°31' E 013°58'1110.5
2015-Aug-29 04:33N 40°24' E 014°08'1110.6
2015-Aug-29 03:33N 40°15' E 014°15'1110.9
2015-Aug-29 02:33N 40°05' E 014°22'1110.9
2015-Aug-29 01:33N 39°55' E 014°28'1110.8
2015-Aug-29 00:30N 39°46' E 014°36'7810.7
2015-Aug-28 17:12N 38°38' E 015°26'810.9
2015-Aug-28 16:30N 38°32' E 015°31'1010.8
2015-Aug-28 15:33N 38°23' E 015°38'9 9.2
2015-Aug-28 14:33N 38°14' E 015°37'1211.8
2015-Aug-28 13:33N 38°02' E 015°35'1111.1
2015-Aug-28 12:33N 37°54' E 015°44'1311.5
2015-Aug-28 11:27N 37°52' E 015°60'  
2015-Aug-25 12:15N 37°50' E 015°49'810.8
2015-Aug-25 11:30N 37°50' E 015°39'1010.8
2015-Aug-25 10:33N 37°60' E 015°35'1211.7
2015-Aug-25 09:33N 38°11' E 015°36'9 8.8
2015-Aug-25 08:33N 38°20' E 015°39'1212.0
2015-Aug-25 07:33N 38°30' E 015°31'1212.2
2015-Aug-25 06:32N 38°41' E 015°23'1212.2
2015-Aug-25 05:33N 38°51' E 015°16'1412.3
2015-Aug-25 04:27N 39°03' E 015°07'5912.0
2015-Aug-24 23:30N 39°56' E 014°32'1111.8
2015-Aug-24 22:33N 40°07' E 014°31'2311.6
2015-Aug-24 20:33N 40°24' E 014°10'1212.2
2015-Aug-24 19:33N 40°32' E 013°58'1212.1
2015-Aug-24 18:33N 40°40' E 013°46'1211.9
2015-Aug-24 17:33N 40°47' E 013°34'1311.8
2015-Aug-24 16:25N 40°56' E 013°20'  

Dump ship's entire track history